createdAt,value
2023-04-18T00:01:12.779Z,2.40
2023-04-18T00:04:15.388Z,2.60
2023-04-18T00:07:18.069Z,2.60
2023-04-18T00:10:20.329Z,4.32
2023-04-18T00:13:22.873Z,2.55
2023-04-18T00:16:25.097Z,3.40
2023-04-18T00:19:27.766Z,2.75
2023-04-18T00:22:29.878Z,2.35
2023-04-18T00:25:31.973Z,3.00
2023-04-18T00:28:34.097Z,3.30
2023-04-18T00:31:36.273Z,3.30
2023-04-18T00:34:38.977Z,3.20
2023-04-18T00:37:41.129Z,3.35
2023-04-18T00:40:43.798Z,1.80
2023-04-18T00:43:45.942Z,2.90
2023-04-18T00:46:48.376Z,2.17
2023-04-18T00:49:50.591Z,3.58
2023-04-18T00:52:53.720Z,2.40
2023-04-18T00:55:55.905Z,2.30
2023-04-18T00:58:58.234Z,3.45
2023-04-18T01:02:00.671Z,3.67
2023-04-18T01:05:03.792Z,2.87
2023-04-18T01:08:06.306Z,2.58
2023-04-18T01:11:10.529Z,2.67
2023-04-18T01:14:12.932Z,3.53
2023-04-18T01:17:16.224Z,2.92
2023-04-18T01:20:21.521Z,3.08
2023-04-18T01:23:23.679Z,2.67
2023-04-18T01:26:26.029Z,2.50
2023-04-18T01:29:28.230Z,4.47
2023-04-18T01:32:34.854Z,3.40
2023-04-18T01:35:37.028Z,4.20
2023-04-18T01:38:39.131Z,3.05
2023-04-18T01:41:44.418Z,3.45
2023-04-18T01:44:46.566Z,3.75
2023-04-18T01:47:48.829Z,3.55
2023-04-18T01:50:50.991Z,3.78
2023-04-18T01:53:53.291Z,2.60
2023-04-18T01:56:55.464Z,4.23
2023-04-18T01:59:57.846Z,2.70
2023-04-18T02:03:00.161Z,3.00
2023-04-18T02:06:03.944Z,3.00
2023-04-18T02:09:06.054Z,2.88
2023-04-18T02:12:08.269Z,3.80
2023-04-18T02:15:11.094Z,3.25
2023-04-18T02:18:13.285Z,4.68
2023-04-18T02:21:15.920Z,3.83
2023-04-18T02:24:18.127Z,3.47
2023-04-18T02:27:20.617Z,2.87
2023-04-18T02:30:23.491Z,3.97
2023-04-18T02:33:25.677Z,4.53
2023-04-18T02:36:28.376Z,3.80
2023-04-18T02:39:30.803Z,7.18
2023-04-18T02:42:33.141Z,4.03
2023-04-18T02:45:36.675Z,2.80
2023-04-18T02:48:38.908Z,5.05
2023-04-18T02:51:42.228Z,4.18
2023-04-18T02:54:44.691Z,4.28
2023-04-18T02:57:51.692Z,3.40
2023-04-18T03:01:13.916Z,3.63
2023-04-18T03:04:48.284Z,3.20
2023-04-18T03:07:50.718Z,3.30
2023-04-18T03:10:56.393Z,3.85
2023-04-18T03:14:00.455Z,4.05
2023-04-18T03:17:09.405Z,4.07
2023-04-18T03:20:15.599Z,3.80
2023-04-18T03:23:17.890Z,3.50
2023-04-18T03:26:21.326Z,5.60
2023-04-18T03:29:23.574Z,4.40
2023-04-18T03:32:27.026Z,4.80
2023-04-18T03:35:29.382Z,3.90
2023-04-18T03:38:31.914Z,5.93
2023-04-18T03:41:34.080Z,3.78
2023-04-18T03:44:36.730Z,4.57
2023-04-18T03:47:39.545Z,4.25
2023-04-18T03:50:41.784Z,4.47
2023-04-18T03:53:45.655Z,3.88
2023-04-18T03:56:47.954Z,4.10
2023-04-18T03:59:51.128Z,5.90
2023-04-18T04:02:53.799Z,5.07
2023-04-18T04:05:56.908Z,4.68
2023-04-18T04:08:59.452Z,6.47
2023-04-18T04:12:03.415Z,4.90
2023-04-18T04:15:06.474Z,3.97
2023-04-18T04:18:09.820Z,5.05
2023-04-18T04:21:15.730Z,5.88
2023-04-18T04:24:30.716Z,4.40
2023-04-18T04:27:33.984Z,5.65
2023-04-18T04:30:37.314Z,7.60
2023-04-18T04:33:40.981Z,5.82
2023-04-18T04:36:51.189Z,10.00
2023-04-18T04:39:53.917Z,8.73
2023-04-18T04:43:15.515Z,9.52
2023-04-18T04:46:20.139Z,9.10
2023-04-18T04:49:25.101Z,5.88
2023-04-18T04:52:27.327Z,7.72
2023-04-18T04:55:29.747Z,9.27
2023-04-18T04:58:33.686Z,9.55
2023-04-18T05:01:46.737Z,11.80
2023-04-18T05:04:50.097Z,10.77
2023-04-18T05:07:52.270Z,7.47
2023-04-18T05:10:55.252Z,7.70
2023-04-18T05:13:57.455Z,7.95
2023-04-18T05:16:59.738Z,6.65
2023-04-18T05:20:01.914Z,6.55
2023-04-18T05:23:04.119Z,7.30
2023-04-18T05:26:06.662Z,6.47
2023-04-18T05:29:08.840Z,6.45
2023-04-18T05:32:11.920Z,6.17
2023-04-18T05:35:14.579Z,7.68
2023-04-18T05:38:16.718Z,5.85
2023-04-18T05:41:18.884Z,5.87
2023-04-18T05:44:21.282Z,6.75
2023-04-18T05:47:34.291Z,6.32
2023-04-18T05:50:39.384Z,6.07
2023-04-18T05:53:41.524Z,6.53
2023-04-18T05:56:44.337Z,5.57
2023-04-18T05:59:46.545Z,5.85
2023-04-18T06:02:49.672Z,7.93
2023-04-18T06:05:56.219Z,4.90
2023-04-18T06:09:04.648Z,6.68
2023-04-18T06:13:51.681Z,5.60
2023-04-18T06:17:38.298Z,5.13
2023-04-18T06:20:44.250Z,4.47
2023-04-18T06:23:48.575Z,6.03
2023-04-18T06:26:52.051Z,6.05
2023-04-18T06:29:59.149Z,5.07
2023-04-18T06:33:01.966Z,4.72
2023-04-18T06:36:05.661Z,4.13
2023-04-18T06:39:08.316Z,6.20
2023-04-18T06:42:13.121Z,5.47
2023-04-18T06:45:20.079Z,4.90
2023-04-18T06:48:22.737Z,4.70
2023-04-18T06:54:41.089Z,4.82
2023-04-18T06:57:43.630Z,4.57
2023-04-18T07:00:49.087Z,4.20
2023-04-18T07:03:54.540Z,4.20
2023-04-18T07:07:04.989Z,3.33
2023-04-18T07:10:09.803Z,3.35
2023-04-18T07:13:14.560Z,3.90
2023-04-18T07:16:26.595Z,4.60
2023-04-18T07:19:29.264Z,4.80
2023-04-18T07:22:31.774Z,3.20
2023-04-18T07:25:34.649Z,3.90
2023-04-18T07:28:44.096Z,3.47
2023-04-18T07:31:51.160Z,3.08
2023-04-18T07:34:58.597Z,2.95
2023-04-18T07:38:01.702Z,3.63
2023-04-18T07:41:21.105Z,5.63
2023-04-18T07:44:27.091Z,4.75
2023-04-18T07:47:30.854Z,3.97
2023-04-18T07:50:34.671Z,5.32
2023-04-18T07:53:40.599Z,3.20
2023-04-18T07:56:55.958Z,3.92
2023-04-18T08:00:03.911Z,6.00
2023-04-18T08:03:20.093Z,2.22
2023-04-18T08:06:24.086Z,2.55
2023-04-18T08:09:26.404Z,3.70
2023-04-18T08:12:28.598Z,2.95
2023-04-18T08:15:32.781Z,2.80
2023-04-18T08:18:35.840Z,3.38
2023-04-18T08:21:39.179Z,2.30
2023-04-18T08:24:46.444Z,2.80
2023-04-18T08:27:53.469Z,2.20
2023-04-18T08:30:56.625Z,2.70
2023-04-18T08:33:58.836Z,2.60
2023-04-18T08:37:01.079Z,1.83
2023-04-18T08:40:05.708Z,3.83
2023-04-18T08:43:09.421Z,3.15
2023-04-18T08:46:13.115Z,2.25
2023-04-18T08:49:17.587Z,2.17
2023-04-18T08:52:26.295Z,3.75
2023-04-18T08:55:30.611Z,2.30
2023-04-18T08:59:08.960Z,2.63
2023-04-18T09:02:14.300Z,2.47
2023-04-18T09:05:20.023Z,2.17
2023-04-18T09:08:26.044Z,3.78
2023-04-18T09:11:29.960Z,2.63
2023-04-18T09:14:32.695Z,2.75
2023-04-18T09:17:46.049Z,2.42
2023-04-18T09:20:49.826Z,2.72
2023-04-18T09:24:08.573Z,4.07
2023-04-18T09:27:14.286Z,3.30
2023-04-18T09:30:39.750Z,1.88
2023-04-18T09:33:52.804Z,4.93
2023-04-18T09:37:15.429Z,2.33
2023-04-18T09:40:22.221Z,2.03
2023-04-18T09:43:24.377Z,3.27
2023-04-18T09:46:27.837Z,1.63
2023-04-18T09:49:33.237Z,3.70
2023-04-18T09:52:40.271Z,2.15
2023-04-18T09:55:45.560Z,5.55
2023-04-18T09:59:14.047Z,3.45
2023-04-18T10:02:23.068Z,2.08
2023-04-18T10:05:32.342Z,2.77
2023-04-18T10:08:34.871Z,3.92
2023-04-18T10:11:37.269Z,2.65
2023-04-18T10:14:42.936Z,4.17
2023-04-18T10:18:00.629Z,3.08
2023-04-18T10:21:09.163Z,3.20
2023-04-18T10:24:49.971Z,2.20
2023-04-18T10:28:02.944Z,5.63
2023-04-18T10:31:05.670Z,2.30
2023-04-18T10:34:07.952Z,3.13
2023-04-18T10:37:12.730Z,4.23
2023-04-18T10:40:15.415Z,2.28
2023-04-18T10:43:17.621Z,1.92
2023-04-18T10:46:31.168Z,2.97
2023-04-18T10:49:38.065Z,3.22
2023-04-18T10:52:41.683Z,3.08
2023-04-18T10:55:44.751Z,3.55
2023-04-18T10:58:54.202Z,2.60
2023-04-18T11:02:10.126Z,3.58
2023-04-18T11:05:15.516Z,2.35
2023-04-18T11:08:24.458Z,3.57
2023-04-18T11:11:26.724Z,2.40
2023-04-18T11:14:40.298Z,4.63
2023-04-18T11:17:45.329Z,1.83
2023-04-18T11:20:51.325Z,4.45
2023-04-18T11:23:55.749Z,5.50
2023-04-18T11:26:58.416Z,1.75
2023-04-18T11:30:01.628Z,2.72
2023-04-18T11:33:13.962Z,1.88
2023-04-18T11:36:16.165Z,2.08
2023-04-18T11:39:22.301Z,1.73
2023-04-18T11:42:28.612Z,1.30
2023-04-18T11:45:31.278Z,2.47
2023-04-18T11:48:41.171Z,2.10
2023-04-18T11:51:46.326Z,5.63
2023-04-18T11:54:52.389Z,3.63
2023-04-18T11:58:01.723Z,4.05
2023-04-18T12:01:17.754Z,3.63
2023-04-18T12:04:20.543Z,3.38
2023-04-18T12:07:40.065Z,3.90
2023-04-18T12:10:50.691Z,4.90
2023-04-18T12:13:56.231Z,3.70
2023-04-18T12:16:58.649Z,2.83
2023-04-18T12:20:06.195Z,3.30
2023-04-18T12:23:08.452Z,5.80
2023-04-18T12:26:16.522Z,3.25
2023-04-18T12:29:19.047Z,4.65
2023-04-18T12:32:21.985Z,4.78
2023-04-18T12:35:25.108Z,6.00
2023-04-18T12:38:27.552Z,6.20
2023-04-18T12:41:31.903Z,2.83
2023-04-18T12:44:34.802Z,3.30
2023-04-18T12:47:41.502Z,5.03
2023-04-18T12:50:46.160Z,3.77
2023-04-18T12:53:48.270Z,9.45
2023-04-18T12:56:50.515Z,6.05
2023-04-18T12:59:52.688Z,7.45
2023-04-18T13:02:55.047Z,2.30
2023-04-18T13:05:57.270Z,4.00
2023-04-18T13:08:59.387Z,1.73
2023-04-18T13:12:02.510Z,4.20
2023-04-18T13:15:06.806Z,8.32
2023-04-18T13:18:09.130Z,4.60
2023-04-18T13:21:11.294Z,3.07
2023-04-18T13:24:13.521Z,1.83
2023-04-18T13:27:15.949Z,3.05
2023-04-18T13:30:18.210Z,2.83
2023-04-18T13:33:20.621Z,2.63
2023-04-18T13:36:23.998Z,3.92
2023-04-18T13:39:26.605Z,5.18
2023-04-18T13:42:28.836Z,5.97
2023-04-18T13:45:30.999Z,4.25
2023-04-18T13:48:33.104Z,2.35
2023-04-18T13:51:35.331Z,4.23
2023-04-18T13:54:37.730Z,1.85
2023-04-18T13:57:41.133Z,2.70
2023-04-18T14:00:43.454Z,1.95
2023-04-18T14:03:47.520Z,2.20
2023-04-18T14:06:50.495Z,3.10
2023-04-18T14:09:53.882Z,3.45
2023-04-18T14:12:56.602Z,3.83
2023-04-18T14:15:59.736Z,2.83
2023-04-18T14:19:02.402Z,2.72
2023-04-18T14:22:04.515Z,5.50
2023-04-18T14:25:10.000Z,4.22
2023-04-18T14:28:12.213Z,2.25
2023-04-18T14:31:15.289Z,2.58
2023-04-18T14:34:17.435Z,2.13
2023-04-18T14:37:19.557Z,2.80
2023-04-18T14:40:22.602Z,1.33
2023-04-18T14:43:25.212Z,3.10
2023-04-18T14:46:28.317Z,2.88
2023-04-18T14:49:30.589Z,1.70
2023-04-18T14:52:32.696Z,2.73
2023-04-18T14:55:34.883Z,3.22
2023-04-18T14:58:37.121Z,2.83
2023-04-18T15:01:41.473Z,3.30
2023-04-18T15:04:43.679Z,1.63
2023-04-18T15:07:46.924Z,2.75
2023-04-18T15:10:51.184Z,3.53
2023-04-18T15:13:53.439Z,3.00
2023-04-18T15:16:55.942Z,2.03
2023-04-18T15:20:01.414Z,2.33
2023-04-18T15:23:03.612Z,2.83
2023-04-18T15:26:06.130Z,3.58
2023-04-18T15:29:08.438Z,2.05
2023-04-18T15:32:11.021Z,2.05
2023-04-18T15:35:13.228Z,4.18
2023-04-18T15:38:15.441Z,1.80
2023-04-18T15:41:17.547Z,3.42
2023-04-18T15:44:19.814Z,4.27
2023-04-18T15:47:21.947Z,4.03
2023-04-18T15:50:24.264Z,2.47
2023-04-18T15:53:29.592Z,2.10
2023-04-18T15:56:33.601Z,2.75
2023-04-18T15:59:36.307Z,3.47
2023-04-18T16:02:38.686Z,3.78
2023-04-18T16:05:41.428Z,2.42
2023-04-18T16:08:43.614Z,3.28
2023-04-18T16:11:45.903Z,3.50
2023-04-18T16:14:48.003Z,4.43
2023-04-18T16:17:52.809Z,3.25
2023-04-18T16:20:54.938Z,2.38
2023-04-18T16:23:57.041Z,2.83
2023-04-18T16:26:59.219Z,2.45
2023-04-18T16:30:01.452Z,3.78
2023-04-18T16:33:03.974Z,3.40
2023-04-18T16:36:06.940Z,6.97
2023-04-18T16:39:09.076Z,3.63
2023-04-18T16:42:12.471Z,2.35
2023-04-18T16:45:17.262Z,2.93
2023-04-18T16:48:19.387Z,2.95
2023-04-18T16:51:24.370Z,2.83
2023-04-18T16:54:26.530Z,2.83
2023-04-18T16:57:28.695Z,2.60
2023-04-18T17:00:36.974Z,2.97
2023-04-18T17:03:40.965Z,3.65
2023-04-18T17:06:43.736Z,2.83
2023-04-18T17:09:45.949Z,1.95
2023-04-18T17:12:49.335Z,4.00
2023-04-18T17:15:51.542Z,6.30
2023-04-18T17:18:53.746Z,3.10
2023-04-18T17:21:56.087Z,3.83
2023-04-18T17:24:58.254Z,2.97
2023-04-18T17:28:02.230Z,4.10
2023-04-18T17:31:04.651Z,2.97
2023-04-18T17:34:10.909Z,4.72
2023-04-18T17:37:13.685Z,2.75
2023-04-18T17:40:15.810Z,4.15
2023-04-18T17:43:18.034Z,3.95
2023-04-18T17:46:20.359Z,6.40
2023-04-18T17:49:22.677Z,5.13
2023-04-18T17:52:24.959Z,5.07
2023-04-18T17:55:27.159Z,4.13
2023-04-18T17:58:29.808Z,4.88
2023-04-18T18:01:32.895Z,4.45
2023-04-18T18:04:35.305Z,3.40
2023-04-18T18:07:38.313Z,4.13
2023-04-18T18:10:41.280Z,5.32
2023-04-18T18:13:43.772Z,5.60
2023-04-18T18:16:46.292Z,4.23
2023-04-18T18:19:48.416Z,5.40
2023-04-18T18:22:51.378Z,4.88
2023-04-18T18:25:53.552Z,6.13
2023-04-18T18:28:55.727Z,5.20
2023-04-18T18:31:57.896Z,4.00
2023-04-18T18:35:00.179Z,3.33
2023-04-18T18:38:02.329Z,3.38
2023-04-18T18:41:04.711Z,5.05
2023-04-18T18:44:07.087Z,4.60
2023-04-18T18:47:09.264Z,5.27
2023-04-18T18:50:11.496Z,6.30
2023-04-18T18:53:16.810Z,3.15
2023-04-18T18:56:19.251Z,6.17
2023-04-18T18:59:21.404Z,4.30
2023-04-18T19:02:23.814Z,5.05
2023-04-18T19:05:26.180Z,5.18
2023-04-18T19:08:28.345Z,6.63
2023-04-18T19:11:30.657Z,8.48
2023-04-18T19:14:33.049Z,6.68
2023-04-18T19:17:35.342Z,6.17
2023-04-18T19:20:40.291Z,5.60
2023-04-18T19:23:42.482Z,6.45
2023-04-18T19:26:44.670Z,6.60
2023-04-18T19:29:46.805Z,4.88
2023-04-18T19:32:49.060Z,5.55
2023-04-18T19:35:51.605Z,6.00
2023-04-18T19:38:53.836Z,6.20
2023-04-18T19:41:56.053Z,6.03
2023-04-18T19:44:59.304Z,5.20
2023-04-18T19:48:01.531Z,5.20
2023-04-18T19:51:04.747Z,5.53
2023-04-18T19:54:07.036Z,5.30
2023-04-18T19:57:09.151Z,6.33
2023-04-18T20:00:13.032Z,4.15
2023-04-18T20:03:17.012Z,5.05
2023-04-18T20:06:20.112Z,6.53
2023-04-18T20:09:22.359Z,3.55
2023-04-18T20:12:24.554Z,5.85
2023-04-18T20:15:26.709Z,4.63
2023-04-18T20:18:30.320Z,3.37
2023-04-18T20:21:32.518Z,3.45
2023-04-18T20:24:34.905Z,3.38
2023-04-18T20:27:37.176Z,2.80
2023-04-18T20:30:39.479Z,3.95
2023-04-18T20:33:41.817Z,2.22
2023-04-18T20:36:44.689Z,6.13
2023-04-18T20:39:47.463Z,3.15
2023-04-18T20:42:49.704Z,4.32
2023-04-18T20:45:52.000Z,3.30
2023-04-18T20:48:54.156Z,3.63
2023-04-18T20:51:56.496Z,3.70
2023-04-18T20:54:58.702Z,2.33
2023-04-18T20:58:00.880Z,2.33
2023-04-18T21:01:03.169Z,3.28
2023-04-18T21:04:05.399Z,3.05
2023-04-18T21:07:07.586Z,3.45
2023-04-18T21:10:09.890Z,4.03
2023-04-18T21:13:12.661Z,3.20
2023-04-18T21:16:15.044Z,2.83
2023-04-18T21:19:17.288Z,2.60
2023-04-18T21:22:19.503Z,3.92
2023-04-18T21:25:21.707Z,3.97
2023-04-18T21:28:23.800Z,2.50
2023-04-18T21:31:27.308Z,3.28
2023-04-18T21:34:29.490Z,4.70
2023-04-18T21:37:31.937Z,3.30
2023-04-18T21:40:34.115Z,3.05
2023-04-18T21:43:36.273Z,2.35
2023-04-18T21:46:38.427Z,3.35
2023-04-18T21:49:41.796Z,2.47
2023-04-18T21:52:43.994Z,4.30
2023-04-18T21:55:46.187Z,3.90
2023-04-18T21:58:49.400Z,3.73
2023-04-18T22:01:51.623Z,3.15
2023-04-18T22:04:53.753Z,4.43
2023-04-18T22:07:58.525Z,3.40
2023-04-18T22:11:01.060Z,3.17
2023-04-18T22:14:03.274Z,5.20
2023-04-18T22:17:05.544Z,2.83
2023-04-18T22:20:08.389Z,3.50
2023-04-18T22:23:11.263Z,5.18
2023-04-18T22:26:13.542Z,3.03
2023-04-18T22:29:15.962Z,3.47
2023-04-18T22:32:18.208Z,4.82
2023-04-18T22:35:20.479Z,4.53
2023-04-18T22:38:22.588Z,5.95
2023-04-18T22:41:24.779Z,3.28
2023-04-18T22:44:27.008Z,9.50
2023-04-18T22:47:29.183Z,6.10
2023-04-18T22:50:31.405Z,5.30
2023-04-18T22:53:33.585Z,5.65
2023-04-18T22:56:35.793Z,3.50
2023-04-18T22:59:38.019Z,3.10
2023-04-18T23:02:40.726Z,4.25
2023-04-18T23:05:43.028Z,5.32
2023-04-18T23:08:45.227Z,3.30
2023-04-18T23:11:47.440Z,3.53
2023-04-18T23:14:49.705Z,3.17
2023-04-18T23:17:53.088Z,3.55
2023-04-18T23:20:55.473Z,4.20
2023-04-18T23:23:58.039Z,3.33
2023-04-18T23:27:01.477Z,4.90
2023-04-18T23:30:04.461Z,5.13
2023-04-18T23:33:06.693Z,3.40
2023-04-18T23:36:09.171Z,3.15
2023-04-18T23:39:11.504Z,2.95
2023-04-18T23:42:13.673Z,3.65
2023-04-18T23:45:15.925Z,6.13
2023-04-18T23:48:18.080Z,3.65
2023-04-18T23:51:20.338Z,3.87
2023-04-18T23:54:22.511Z,3.55
2023-04-18T23:57:24.758Z,2.97
